Time;durP1;ratioP1;P1;durP2;ratioP2;P2;SDS_P1;SDS_P2;PMS_P1;PMS_P2;Temp;Humidity;BMP_temperature;BMP_pressure;BME280_temperature;BME280_humidity;BME280_pressure;Samples;Min_cycle;Max_cycle;Signal;HPM_P1;HPM_P2
2021/07/20 00:01:16;;;;;;;13.90;4.38;;;;;;;25.28;44.67;97090.34;5008440;28;20495;-72
2021/07/20 00:03:41;;;;;;;10.90;4.70;;;;;;;25.29;44.68;97089.25;5044889;28;20685;-73
2021/07/20 00:06:07;;;;;;;12.52;4.38;;;;;;;25.21;44.65;97082.16;5015323;28;20059;-73
2021/07/20 00:08:33;;;;;;;9.48;4.63;;;;;;;25.21;45.17;97079.41;5014986;28;20063;-73
2021/07/20 00:11:01;;;;;;;9.55;4.45;;;;;;;25.24;44.52;97084.44;5016001;28;20026;-73
2021/07/20 00:13:26;;;;;;;12.15;4.57;;;;;;;25.26;44.84;97080.63;5014934;28;20040;-72
2021/07/20 00:15:54;;;;;;;10.05;4.28;;;;;;;25.24;45.24;97076.19;5015637;28;20108;-72
2021/07/20 00:18:26;;;;;;;12.50;4.47;;;;;;;25.13;45.51;97076.06;5013988;28;20038;-73
2021/07/20 00:20:52;;;;;;;10.60;4.55;;;;;;;25.24;44.76;97078.06;5015122;28;20034;-73
2021/07/20 00:23:21;;;;;;;10.55;4.53;;;;;;;25.21;44.98;97076.66;5014948;28;20529;-72
2021/07/20 00:25:49;;;;;;;9.95;4.47;;;;;;;25.30;44.60;97079.94;5015256;28;20041;-72
2021/07/20 00:28:15;;;;;;;10.85;4.50;;;;;;;25.21;44.65;97073.03;5010787;28;20100;-72
2021/07/20 00:30:40;;;;;;;8.90;4.30;;;;;;;25.15;45.16;97076.69;5008329;28;20038;-72
2021/07/20 00:33:06;;;;;;;9.35;4.25;;;;;;;25.05;45.29;97080.78;5010777;28;20249;-72
2021/07/20 00:35:32;;;;;;;13.25;5.13;;;;;;;25.01;45.41;97071.28;5013730;28;20037;-72
2021/07/20 00:37:57;;;;;;;10.15;4.80;;;;;;;24.97;45.86;97070.03;5014628;28;20033;-72
2021/07/20 00:40:23;;;;;;;9.27;4.55;;;;;;;24.84;46.07;97078.34;5013401;28;20038;-72
2021/07/20 00:42:48;;;;;;;10.85;4.50;;;;;;;24.88;45.88;97065.84;5014111;28;20065;-72
2021/07/20 00:45:16;;;;;;;8.40;4.15;;;;;;;24.90;45.66;97067.31;5011186;28;20080;-73
2021/07/20 00:47:42;;;;;;;11.02;4.72;;;;;;;24.87;45.65;97065.03;5014003;28;20038;-73
2021/07/20 00:50:09;;;;;;;10.07;4.50;;;;;;;24.87;45.77;97062.28;5014439;28;20041;-73
2021/07/20 00:52:34;;;;;;;10.50;4.20;;;;;;;24.82;45.95;97067.59;5014387;28;20504;-72
2021/07/20 00:55:01;;;;;;;9.85;4.45;;;;;;;24.72;46.20;97070.00;4996688;28;20040;-72
2021/07/20 00:57:26;;;;;;;10.95;4.35;;;;;;;24.55;46.59;97061.38;5013993;28;20501;-72
2021/07/20 00:59:53;;;;;;;10.50;4.32;;;;;;;24.55;46.51;97067.72;5011897;28;20132;-73
2021/07/20 01:02:19;;;;;;;8.98;4.22;;;;;;;24.54;46.56;97067.94;5011870;28;20096;-73
2021/07/20 01:04:44;;;;;;;8.45;3.92;;;;;;;24.19;48.02;97069.13;5014041;28;20069;-73
2021/07/20 01:07:10;;;;;;;10.52;4.15;;;;;;;24.21;48.02;97066.16;5014282;28;20482;-73
2021/07/20 01:09:35;;;;;;;9.90;4.50;;;;;;;24.36;47.09;97065.91;5013148;28;20109;-73
2021/07/20 01:12:01;;;;;;;10.18;4.57;;;;;;;24.52;46.39;97065.41;5013855;28;20037;-72
2021/07/20 01:14:27;;;;;;;8.15;4.30;;;;;;;24.45;46.86;97055.50;4990925;28;20036;-72
2021/07/20 01:16:54;;;;;;;9.13;4.15;;;;;;;24.57;46.71;97054.59;5010275;28;20025;-72
2021/07/20 01:19:21;;;;;;;11.27;3.95;;;;;;;24.61;46.59;97054.16;5010719;28;20022;-72
2021/07/20 01:21:52;;;;;;;9.63;4.55;;;;;;;24.40;47.03;97057.00;5012684;28;20037;-73
2021/07/20 01:24:18;;;;;;;8.45;4.55;;;;;;;24.37;47.32;97049.22;5012579;28;20068;-72
2021/07/20 01:26:45;;;;;;;8.23;4.05;;;;;;;23.96;49.27;97055.91;5011887;28;20037;-72
2021/07/20 01:29:11;;;;;;;11.45;4.45;;;;;;;23.85;49.14;97053.78;5011523;28;20438;-72
2021/07/20 01:31:39;;;;;;;10.82;4.25;;;;;;;23.72;49.84;97055.50;5009103;28;20029;-72
2021/07/20 01:34:07;;;;;;;9.60;4.30;;;;;;;23.78;48.86;97056.53;5012683;28;20117;-72
2021/07/20 01:36:33;;;;;;;9.45;4.30;;;;;;;23.75;49.20;97051.50;5045427;28;20501;-72
2021/07/20 01:39:02;;;;;;;10.45;4.25;;;;;;;23.59;49.68;97051.97;5012290;28;20121;-72
2021/07/20 01:41:29;;;;;;;8.10;4.18;;;;;;;23.48;49.94;97046.06;5012513;28;20497;-72
2021/07/20 01:44:01;;;;;;;8.65;3.88;;;;;;;23.54;49.99;97047.97;5012410;28;20037;-72
2021/07/20 01:46:28;;;;;;;8.48;4.38;;;;;;;23.44;49.91;97046.69;5013288;28;20030;-72
2021/07/20 01:48:54;;;;;;;8.85;4.40;;;;;;;23.34;50.71;97045.22;4995352;28;20026;-72
2021/07/20 01:51:21;;;;;;;9.98;4.32;;;;;;;23.45;49.57;97046.50;5013168;28;20030;-72
2021/07/20 01:53:47;;;;;;;10.82;4.55;;;;;;;23.49;49.53;97045.00;5012402;28;20034;-72
2021/07/20 01:56:13;;;;;;;10.63;4.40;;;;;;;23.56;49.52;97047.75;5013940;28;20099;-72
2021/07/20 01:58:42;;;;;;;8.52;4.13;;;;;;;23.63;49.29;97043.06;5011869;28;20457;-72
2021/07/20 02:01:10;;;;;;;8.48;4.13;;;;;;;24.05;47.39;97037.28;5011634;28;20052;-73
2021/07/20 02:08:56;;;;;;;8.65;4.20;;;;;;;23.98;48.97;97044.72;5013235;28;20080;-73
2021/07/20 02:11:27;;;;;;;8.35;4.30;;;;;;;23.42;50.69;97046.06;5012151;28;20459;-72
2021/07/20 02:13:57;;;;;;;12.95;4.03;;;;;;;23.21;51.39;97045.22;5012340;28;20109;-72
2021/07/20 02:16:33;;;;;;;11.10;4.10;;;;;;;23.36;50.95;97045.84;5012568;28;20355;-72
2021/07/20 02:19:12;;;;;;;9.80;4.40;;;;;;;23.38;50.98;97046.50;5012846;28;20029;-73
2021/07/20 02:21:40;;;;;;;7.05;4.18;;;;;;;23.18;51.77;97045.66;5012941;28;20087;-73
2021/07/20 02:24:06;;;;;;;10.05;4.43;;;;;;;23.00;52.31;97049.81;5011606;28;20520;-73
2021/07/20 02:26:32;;;;;;;10.23;4.57;;;;;;;22.94;52.74;97050.66;5011662;28;20026;-72
2021/07/20 02:28:57;;;;;;;10.07;4.75;;;;;;;22.89;53.27;97045.81;5012118;28;20040;-72
2021/07/20 02:31:24;;;;;;;9.88;4.50;;;;;;;22.90;53.55;97055.75;5010715;28;20497;-72
2021/07/20 02:33:51;;;;;;;10.05;4.30;;;;;;;22.81;53.78;97050.63;5009317;28;20036;-72
2021/07/20 02:36:17;;;;;;;11.45;4.22;;;;;;;22.88;52.71;97046.84;5016254;28;20029;-72
2021/07/20 02:38:43;;;;;;;10.23;4.40;;;;;;;22.87;52.35;97047.91;5015552;28;20025;-72
2021/07/20 02:41:10;;;;;;;8.32;4.25;;;;;;;22.90;52.10;97053.00;5017005;28;20084;-72
2021/07/20 02:43:38;;;;;;;8.65;4.30;;;;;;;23.00;51.99;97051.75;5016934;28;20490;-72
2021/07/20 02:46:05;;;;;;;7.30;4.30;;;;;;;22.91;52.56;97042.84;5015908;28;20454;-72
2021/07/20 02:48:31;;;;;;;9.63;4.18;;;;;;;22.79;53.13;97048.09;5014865;28;20034;-72
2021/07/20 02:50:59;;;;;;;10.02;4.50;;;;;;;22.85;53.00;97046.44;5015414;28;20041;-72
2021/07/20 02:53:25;;;;;;;11.60;4.50;;;;;;;22.74;53.31;97050.63;5029295;28;20034;-72
2021/07/20 02:55:51;;;;;;;8.00;3.95;;;;;;;22.70;53.71;97050.22;4997123;28;20045;-72
2021/07/20 02:58:17;;;;;;;8.82;4.70;;;;;;;22.73;53.59;97043.47;5010452;28;20058;-72
2021/07/20 03:00:43;;;;;;;7.95;4.13;;;;;;;22.75;53.82;97052.31;5015180;28;20069;-72
2021/07/20 03:03:10;;;;;;;9.00;4.30;;;;;;;22.77;54.03;97044.75;5013711;28;20061;-73
2021/07/20 03:05:37;;;;;;;7.78;4.50;;;;;;;22.86;53.29;97040.75;5015744;28;20080;-73
2021/07/20 03:08:02;;;;;;;8.30;4.20;;;;;;;22.79;53.68;97045.38;5015248;28;20390;-73
2021/07/20 03:10:30;;;;;;;9.35;4.22;;;;;;;22.74;53.54;97046.00;5016463;28;20044;-73
2021/07/20 03:12:59;;;;;;;9.73;4.35;;;;;;;22.81;53.31;97043.28;5014904;28;20034;-72
2021/07/20 03:15:25;;;;;;;9.82;4.35;;;;;;;22.91;53.03;97042.84;5015529;28;20025;-72
2021/07/20 03:17:51;;;;;;;10.93;4.45;;;;;;;22.93;52.84;97045.38;5015768;28;20030;-72
2021/07/20 03:20:17;;;;;;;9.68;4.20;;;;;;;22.96;52.72;97045.00;5013892;28;20030;-72
2021/07/20 03:22:45;;;;;;;7.30;4.05;;;;;;;23.04;52.48;97050.25;5014572;28;20104;-72
2021/07/20 03:25:12;;;;;;;11.30;4.10;;;;;;;22.99;52.22;97045.38;5014389;28;20018;-72
2021/07/20 03:27:39;;;;;;;7.85;4.13;;;;;;;22.94;52.33;97047.91;5014734;28;20037;-72
2021/07/20 03:30:07;;;;;;;9.05;4.50;;;;;;;23.01;52.20;97048.78;5014148;28;20026;-72
2021/07/20 03:32:32;;;;;;;11.32;3.83;;;;;;;23.03;52.13;97051.31;5014091;28;20029;-72
2021/07/20 03:34:58;;;;;;;11.25;4.15;;;;;;;22.94;52.19;97050.66;5006206;28;20117;-72
2021/07/20 03:37:24;;;;;;;7.45;4.40;;;;;;;22.86;52.77;97050.88;5036015;28;20027;-71
2021/07/20 03:39:55;;;;;;;9.45;4.35;;;;;;;22.85;53.03;97047.28;5009780;28;20038;-72
2021/07/20 03:42:22;;;;;;;10.05;4.65;;;;;;;22.80;52.94;97052.56;5014980;28;20111;-72
2021/07/20 03:44:48;;;;;;;11.05;4.55;;;;;;;22.79;53.23;97050.84;5015983;28;20044;-72
2021/07/20 03:47:16;;;;;;;9.10;4.18;;;;;;;22.73;53.02;97052.53;5013967;28;20486;-72
2021/07/20 03:49:43;;;;;;;8.65;4.35;;;;;;;22.90;52.54;97055.75;5014445;28;20034;-73
2021/07/20 03:52:08;;;;;;;7.93;4.25;;;;;;;22.95;52.31;97046.88;5015934;28;20355;-72
2021/07/20 03:54:34;;;;;;;9.48;4.35;;;;;;;22.98;51.87;97053.84;5012231;28;20032;-73
2021/07/20 03:57:01;;;;;;;10.75;4.38;;;;;;;23.03;51.73;97051.31;5019287;28;20109;-73
2021/07/20 03:59:28;;;;;;;12.07;4.25;;;;;;;22.85;52.43;97051.91;5045326;28;20108;-73
2021/07/20 04:01:56;;;;;;;8.85;4.43;;;;;;;22.72;53.20;97053.59;5013316;28;20487;-74
2021/07/20 04:04:22;;;;;;;10.23;4.10;;;;;;;22.77;53.02;97058.47;5012563;28;20022;-75
2021/07/20 04:06:48;;;;;;;10.75;4.35;;;;;;;22.82;52.99;97058.69;5011126;28;20056;-76
2021/07/20 04:09:14;;;;;;;8.93;4.38;;;;;;;22.92;52.77;97062.91;5019445;28;20022;-73
2021/07/20 04:11:40;;;;;;;9.45;4.38;;;;;;;22.86;53.04;97057.22;5014682;28;20562;-72
2021/07/20 04:14:06;;;;;;;9.05;4.30;;;;;;;22.98;52.47;97062.06;5014093;28;20561;-73
2021/07/20 04:16:33;;;;;;;7.95;4.20;;;;;;;22.92;52.97;97061.00;5013729;28;20467;-72
2021/07/20 04:18:58;;;;;;;7.88;4.10;;;;;;;22.94;51.88;97058.06;5020470;28;20052;-72
2021/07/20 04:21:24;;;;;;;8.35;4.28;;;;;;;23.10;52.68;97060.38;4997308;28;20471;-72
2021/07/20 04:23:50;;;;;;;11.77;4.75;;;;;;;22.99;52.37;97064.59;5013713;28;20533;-73
2021/07/20 04:26:17;;;;;;;12.70;4.70;;;;;;;23.05;52.20;97063.75;5014520;28;20065;-73
2021/07/20 04:28:43;;;;;;;9.93;4.10;;;;;;;23.23;51.16;97063.16;5015790;28;20090;-72
2021/07/20 04:31:08;;;;;;;8.70;4.32;;;;;;;23.10;53.01;97059.53;5013480;28;20061;-72
2021/07/20 04:33:35;;;;;;;8.80;4.20;;;;;;;23.12;52.61;97066.50;4996494;28;20034;-71
2021/07/20 04:36:01;;;;;;;9.90;4.65;;;;;;;23.14;52.58;97061.66;4995123;28;20445;-71
2021/07/20 04:38:30;;;;;;;13.07;4.90;;;;;;;23.06;53.23;97062.72;5012572;28;20026;-72
2021/07/20 04:40:57;;;;;;;10.65;4.38;;;;;;;23.12;53.52;97065.69;5013661;28;20544;-71
2021/07/20 04:43:23;;;;;;;11.52;4.72;;;;;;;23.17;53.35;97072.25;5012439;28;20389;-71
2021/07/20 04:45:51;;;;;;;11.48;4.70;;;;;;;23.19;53.18;97067.38;5011360;28;20026;-70
2021/07/20 04:48:16;;;;;;;11.02;4.70;;;;;;;23.08;54.26;97068.81;5044753;28;20120;-72
2021/07/20 04:50:43;;;;;;;9.68;4.55;;;;;;;23.15;54.61;97074.34;5013405;28;20105;-73
2021/07/20 04:53:09;;;;;;;11.18;4.53;;;;;;;23.09;54.77;97072.44;5012796;28;20022;-71
2021/07/20 04:55:35;;;;;;;11.25;4.75;;;;;;;23.03;54.81;97074.09;5012442;28;20041;-73
2021/07/20 04:58:02;;;;;;;12.68;4.72;;;;;;;22.96;55.06;97073.25;5013446;28;20101;-75
2021/07/20 05:00:28;;;;;;;11.70;4.78;;;;;;;22.94;56.02;97078.06;5012440;28;20030;-73
2021/07/20 05:02:56;;;;;;;10.77;4.43;;;;;;;22.96;56.61;97075.16;5011569;28;20104;-72
2021/07/20 05:05:22;;;;;;;11.90;4.68;;;;;;;23.00;55.90;97073.69;5012150;28;20026;-74
2021/07/20 05:07:52;;;;;;;8.77;4.57;;;;;;;23.02;55.98;97074.28;5012415;28;20113;-74
2021/07/20 05:10:18;;;;;;;11.55;4.50;;;;;;;23.06;55.45;97081.91;5011994;28;20460;-69
2021/07/20 05:12:44;;;;;;;11.68;4.53;;;;;;;22.98;56.50;97082.13;5009664;28;20022;-72
2021/07/20 05:15:13;;;;;;;14.20;5.00;;;;;;;22.83;58.24;97082.28;5012092;28;20037;-72
2021/07/20 05:17:39;;;;;;;20.90;5.68;;;;;;;22.90;58.38;97088.63;5010668;28;20061;-70
2021/07/20 05:20:06;;;;;;;12.68;5.30;;;;;;;22.72;57.96;97088.38;5010742;28;20022;-72
2021/07/20 05:22:34;;;;;;;14.15;5.25;;;;;;;22.69;57.96;97084.16;5012192;28;20041;-72
2021/07/20 05:25:04;;;;;;;13.85;5.20;;;;;;;22.66;58.78;97091.94;5011222;28;20501;-69
2021/07/20 05:27:31;;;;;;;15.60;5.43;;;;;;;22.62;58.97;97096.16;5000594;28;20088;-68
2021/07/20 05:29:57;;;;;;;11.05;5.82;;;;;;;22.66;58.61;97092.81;5012975;28;20478;-72
2021/07/20 05:32:23;;;;;;;11.57;5.32;;;;;;;22.43;60.25;97092.31;5012410;28;20030;-71
2021/07/20 05:34:48;;;;;;;9.10;5.53;;;;;;;22.49;58.91;97092.31;5012258;28;20038;-73
2021/07/20 05:37:20;;;;;;;10.10;5.97;;;;;;;22.50;58.89;97099.50;5012584;28;20029;-72
2021/07/20 05:39:47;;;;;;;11.40;5.45;;;;;;;22.69;59.08;97094.28;5005687;28;20030;-74
2021/07/20 05:42:12;;;;;;;8.98;5.18;;;;;;;22.62;59.56;97098.91;5030809;28;20030;-72
2021/07/20 05:44:38;;;;;;;16.55;6.65;;;;;;;22.46;59.11;97098.22;5005708;28;20149;-71
2021/07/20 05:47:04;;;;;;;10.93;6.18;;;;;;;22.49;60.14;97092.31;5012442;28;20040;-69
2021/07/20 05:49:29;;;;;;;11.45;5.07;;;;;;;22.55;60.86;97091.50;5012772;28;21257;-72
2021/07/20 05:51:55;;;;;;;11.93;5.43;;;;;;;22.61;60.52;97103.53;5012608;28;20029;-71
2021/07/20 05:54:21;;;;;;;12.75;6.00;;;;;;;22.58;61.03;97101.19;5011542;28;20034;-72
2021/07/20 05:56:47;;;;;;;13.60;5.32;;;;;;;22.71;60.89;97105.88;5011965;28;20045;-68
2021/07/20 05:59:13;;;;;;;16.23;5.60;;;;;;;22.81;60.35;97102.72;5011947;28;20108;-73
2021/07/20 06:01:39;;;;;;;15.20;6.07;;;;;;;22.92;59.95;97098.56;5010862;28;20041;-72
2021/07/20 06:04:05;;;;;;;13.55;5.63;;;;;;;22.96;59.69;97091.59;5029789;28;20014;-73
2021/07/20 06:06:30;;;;;;;14.63;5.97;;;;;;;22.97;59.17;97102.34;5015501;28;20038;-73
2021/07/20 06:08:59;;;;;;;19.63;6.07;;;;;;;23.10;58.21;97106.16;5030427;28;20029;-72
2021/07/20 06:11:25;;;;;;;16.65;6.55;;;;;;;23.24;58.19;97106.00;5011324;28;20545;-72
2021/07/20 06:13:52;;;;;;;15.57;6.15;;;;;;;23.36;58.76;97111.72;5011543;28;20101;-72
2021/07/20 06:16:21;;;;;;;16.27;6.32;;;;;;;23.30;59.71;97117.19;5012866;28;20377;-73
2021/07/20 06:18:47;;;;;;;12.55;6.20;;;;;;;23.43;58.96;97119.94;5018237;28;20038;-72
2021/07/20 06:21:13;;;;;;;11.90;6.18;;;;;;;23.55;58.66;97118.25;5012912;28;20034;-73
2021/07/20 06:23:44;;;;;;;12.95;5.80;;;;;;;23.62;58.25;97125.63;5000544;28;20402;-72
2021/07/20 06:26:11;;;;;;;12.82;6.07;;;;;;;23.72;57.84;97126.06;5013201;28;20052;-73
2021/07/20 06:28:37;;;;;;;12.13;6.13;;;;;;;23.58;58.68;97127.94;5016162;28;20040;-71
2021/07/20 06:31:03;;;;;;;12.20;6.00;;;;;;;23.77;58.20;97122.66;5012337;28;20034;-72
2021/07/20 06:33:29;;;;;;;13.05;5.90;;;;;;;23.80;58.37;97123.09;5023648;28;20038;-72
2021/07/20 06:35:55;;;;;;;15.85;6.55;;;;;;;23.84;58.35;97132.59;5015154;28;20025;-72
2021/07/20 06:38:22;;;;;;;11.13;6.00;;;;;;;23.96;58.42;97126.47;5025106;28;20026;-73
2021/07/20 06:40:49;;;;;;;13.30;6.15;;;;;;;24.05;57.79;97128.78;5021221;28;20033;-73
2021/07/20 06:43:15;;;;;;;16.95;6.43;;;;;;;24.09;57.84;97133.84;5017255;28;20149;-73
2021/07/20 06:45:42;;;;;;;13.23;5.95;;;;;;;24.19;57.12;97132.34;5025649;28;20026;-73
2021/07/20 06:48:11;;;;;;;11.05;6.22;;;;;;;24.27;56.86;97136.75;5017047;28;20025;-73
2021/07/20 06:50:36;;;;;;;12.07;5.75;;;;;;;24.42;55.88;97135.66;5022671;28;20053;-71
2021/07/20 06:53:02;;;;;;;13.98;6.03;;;;;;;24.45;55.82;97141.53;5024302;28;20474;-73
2021/07/20 06:55:28;;;;;;;11.00;6.10;;;;;;;24.46;56.22;97143.25;5015864;28;20061;-73
2021/07/20 06:57:54;;;;;;;17.60;5.90;;;;;;;24.40;56.79;97146.88;5027347;28;20087;-72
2021/07/20 07:00:20;;;;;;;11.95;6.00;;;;;;;24.60;56.68;97135.78;5017506;28;20541;-73
2021/07/20 07:02:51;;;;;;;13.52;6.13;;;;;;;24.57;56.65;97142.56;5022492;28;20117;-73
2021/07/20 07:05:17;;;;;;;13.60;6.10;;;;;;;24.46;57.25;97145.97;5025151;28;20030;-73
2021/07/20 07:07:45;;;;;;;11.63;5.60;;;;;;;24.65;57.42;97154.41;5015549;28;20041;-73
2021/07/20 07:10:13;;;;;;;12.48;5.57;;;;;;;24.73;57.50;97148.66;5026173;28;20096;-73
2021/07/20 07:12:39;;;;;;;12.95;5.57;;;;;;;24.73;57.54;97149.53;5021015;28;20030;-70
2021/07/20 07:15:06;;;;;;;14.93;6.05;;;;;;;24.99;56.83;97155.09;5018788;28;20037;-72
2021/07/20 07:17:33;;;;;;;10.45;5.43;;;;;;;25.16;56.19;97156.25;5026965;28;20042;-72
2021/07/20 07:20:00;;;;;;;11.90;5.90;;;;;;;25.34;54.75;97158.28;5018055;28;20052;-72
2021/07/20 07:22:26;;;;;;;13.90;5.20;;;;;;;25.50;53.67;97154.13;5027609;28;20017;-72
2021/07/20 07:24:53;;;;;;;14.25;5.80;;;;;;;25.70;53.12;97164.16;5004303;28;20035;-71
2021/07/20 07:27:19;;;;;;;10.75;5.68;;;;;;;25.79;52.39;97151.78;5020172;28;20026;-70
2021/07/20 07:29:44;;;;;;;13.27;5.72;;;;;;;25.82;53.00;97150.50;5022929;28;20029;-71
2021/07/20 07:32:10;;;;;;;11.68;5.72;;;;;;;25.83;52.88;97154.91;5014491;28;20486;-71
2021/07/20 07:34:36;;;;;;;15.80;5.63;;;;;;;25.97;52.21;97159.25;5015855;28;20026;-70
2021/07/20 07:37:02;;;;;;;14.23;5.72;;;;;;;25.97;51.06;97155.66;5025895;28;20025;-72
2021/07/20 07:39:28;;;;;;;16.98;6.35;;;;;;;26.06;50.85;97154.34;5051478;28;20072;-72
2021/07/20 07:41:54;;;;;;;19.75;5.93;;;;;;;26.25;50.77;97157.94;5024653;28;20109;-71
2021/07/20 07:44:21;;;;;;;14.32;5.55;;;;;;;25.88;51.12;97163.34;5041459;28;20101;-72
2021/07/20 07:46:49;;;;;;;12.45;5.97;;;;;;;26.06;50.87;97160.66;5000535;28;20041;-72
2021/07/20 07:49:15;;;;;;;12.27;5.90;;;;;;;25.98;50.66;97160.94;5013179;28;20030;-72
2021/07/20 07:51:42;;;;;;;10.82;5.85;;;;;;;25.95;50.48;97155.88;5011024;28;20045;-73
2021/07/20 07:54:08;;;;;;;13.75;5.95;;;;;;;25.95;51.22;97160.53;5013735;28;20040;-72
2021/07/20 07:56:34;;;;;;;12.88;5.97;;;;;;;26.16;50.26;97157.41;5016146;28;20033;-74
2021/07/20 07:59:00;;;;;;;14.00;6.63;;;;;;;26.10;50.95;97157.47;5011555;28;20047;-72
2021/07/20 08:01:30;;;;;;;13.05;5.75;;;;;;;26.02;49.13;97153.06;5042997;28;20105;-72
2021/07/20 08:03:57;;;;;;;15.30;5.85;;;;;;;26.13;49.55;97155.09;5013500;28;20044;-72
2021/07/20 08:23:31;;;;;;;12.00;5.43;;;;;;;26.72;46.34;97168.47;4934605;29;20090;-59
2021/07/20 08:26:00;;;;;;;13.07;6.00;;;;;;;26.69;46.40;97166.16;4961880;28;20027;-57
2021/07/20 08:28:44;;;;;;;7.95;4.82;;;;;;;26.89;45.83;97168.69;4974317;28;20110;-58
2021/07/20 08:31:11;;;;;;;11.25;5.28;;;;;;;26.84;46.00;97171.28;4967558;28;20058;-57
2021/07/20 08:33:38;;;;;;;9.48;5.60;;;;;;;26.80;46.03;97164.56;4973519;28;20368;-57
2021/07/20 08:36:05;;;;;;;13.23;5.70;;;;;;;26.94;46.71;97167.97;4976376;28;20027;-55
2021/07/20 08:38:31;;;;;;;10.82;5.57;;;;;;;27.07;46.48;97165.03;4956856;28;20122;-56
2021/07/20 08:41:03;;;;;;;13.32;5.20;;;;;;;27.11;46.18;97163.50;4971056;28;20101;-56
2021/07/20 08:44:06;;;;;;;14.73;5.43;;;;;;;27.22;45.66;97162.69;4974969;28;20030;-57
2021/07/20 08:46:37;;;;;;;12.65;5.70;;;;;;;26.98;45.97;97160.91;4974600;28;20039;-56
2021/07/20 08:49:07;;;;;;;15.65;5.65;;;;;;;27.17;45.73;97170.00;4972291;28;20041;-57
2021/07/20 08:51:42;;;;;;;12.73;5.70;;;;;;;27.14;46.37;97164.94;4957111;28;20031;-56
2021/07/20 08:54:19;;;;;;;12.90;5.68;;;;;;;27.21;47.13;97172.06;4973320;28;20109;-58
2021/07/20 08:56:45;;;;;;;9.90;5.75;;;;;;;27.36;46.44;97168.84;4971741;28;20406;-59
2021/07/20 08:59:16;;;;;;;15.25;5.68;;;;;;;27.32;45.93;97161.28;4971727;28;20034;-59
2021/07/20 09:02:19;;;;;;;10.32;5.68;;;;;;;27.37;46.47;97161.47;4957407;28;20037;-59
2021/07/20 09:04:52;;;;;;;11.20;5.93;;;;;;;27.43;44.98;97160.50;4971208;28;20034;-58
2021/07/20 09:07:22;;;;;;;11.25;5.80;;;;;;;27.16;45.82;97171.06;4965291;28;20062;-59
2021/07/20 09:09:49;;;;;;;12.02;5.57;;;;;;;27.39;45.52;97162.06;4973650;28;20033;-58
2021/07/20 09:12:18;;;;;;;16.15;5.50;;;;;;;27.50;44.14;97172.31;4971353;28;20038;-59
2021/07/20 09:14:49;;;;;;;14.98;6.20;;;;;;;27.59;45.15;97172.78;4973220;28;20463;-58
2021/07/20 09:17:39;;;;;;;12.45;5.75;;;;;;;27.47;44.45;97171.94;4957353;28;20379;-58
2021/07/20 09:20:06;;;;;;;13.43;5.85;;;;;;;27.63;43.74;97167.63;4972400;28;20426;-58
2021/07/20 09:22:55;;;;;;;11.63;5.55;;;;;;;27.66;44.71;97168.00;4974051;28;20038;-59
2021/07/20 09:25:43;;;;;;;11.15;5.68;;;;;;;27.73;44.73;97168.72;4973256;28;20098;-59
2021/07/20 09:28:14;;;;;;;13.55;6.60;;;;;;;27.88;44.32;97176.56;4972440;28;20042;-58
2021/07/20 09:30:42;;;;;;;;;;;;;;;28.01;43.78;97175.53;4973764;28;20045;-55
2021/07/20 09:33:30;;;;;;;14.13;5.90;;;;;;;27.76;42.80;97164.66;4972325;28;20001;-58
2021/07/20 09:36:00;;;;;;;11.02;5.10;;;;;;;28.01;43.42;97175.53;4969942;28;20046;-57
2021/07/20 09:38:28;;;;;;;10.00;5.65;;;;;;;28.13;43.14;97170.00;4971275;28;20030;-59
2021/07/20 09:40:56;;;;;;;11.75;5.38;;;;;;;27.69;43.43;97172.22;4972768;28;20380;-57
2021/07/20 09:43:37;;;;;;;14.70;5.97;;;;;;;27.96;43.64;97171.78;4970619;28;20042;-57
2021/07/20 09:46:04;;;;;;;12.93;5.50;;;;;;;28.01;42.42;97171.94;4966285;28;20035;-57
2021/07/20 09:48:42;;;;;;;11.05;5.25;;;;;;;27.67;42.38;97168.84;4973940;28;20117;-58
2021/07/20 09:51:25;;;;;;;8.98;5.15;;;;;;;28.00;42.67;97170.22;4971941;28;20027;-58
2021/07/20 09:54:09;;;;;;;12.15;5.30;;;;;;;27.81;42.24;97163.97;4973237;28;20053;-59
2021/07/20 09:56:42;;;;;;;10.98;5.25;;;;;;;28.15;42.50;97170.59;4972239;28;20410;-59
2021/07/20 09:59:29;;;;;;;13.45;5.63;;;;;;;28.33;41.36;97168.81;4968391;28;20085;-58
2021/07/20 10:01:56;;;;;;;14.48;5.75;;;;;;;27.98;41.91;97164.94;4971369;28;20045;-57
2021/07/20 10:04:40;;;;;;;11.57;5.55;;;;;;;28.10;41.47;97170.50;4967042;28;20035;-59
2021/07/20 10:07:17;;;;;;;15.40;5.80;;;;;;;28.48;42.17;97169.13;4961284;28;20101;-57
2021/07/20 10:09:50;;;;;;;13.75;5.95;;;;;;;28.56;41.18;97160.44;4961496;28;20045;-58
2021/07/20 10:12:28;;;;;;;35.78;6.32;;;;;;;28.64;39.95;97155.63;4962469;28;20121;-54
2021/07/20 10:15:06;;;;;;;10.85;5.60;;;;;;;28.23;41.00;97164.72;4968279;28;20030;-57
2021/07/20 10:18:12;;;;;;;14.27;6.05;;;;;;;28.49;41.50;97168.06;4965802;28;20034;-58
2021/07/20 10:20:49;;;;;;;11.25;5.25;;;;;;;28.52;40.57;97159.25;4955769;28;20142;-58
2021/07/20 10:23:17;;;;;;;11.73;5.90;;;;;;;28.54;40.21;97161.78;4968946;28;20112;-58
2021/07/20 10:25:55;;;;;;;16.05;5.90;;;;;;;28.47;40.34;97150.84;4971305;28;20050;-57
2021/07/20 10:28:49;;;;;;;15.75;6.13;;;;;;;28.61;40.16;97161.63;4969062;28;20118;-57
2021/07/20 10:31:28;;;;;;;16.55;6.57;;;;;;;28.40;40.55;97152.91;4969828;28;20502;-58
2021/07/20 10:34:17;;;;;;;12.60;5.97;;;;;;;28.37;40.67;97154.25;4965691;28;20037;-58
2021/07/20 10:36:46;;;;;;;12.00;5.70;;;;;;;28.05;40.52;97146.31;4964550;28;20058;-58
2021/07/20 10:39:19;;;;;;;11.98;5.72;;;;;;;28.35;39.92;97150.03;4965453;28;20033;-58
2021/07/20 10:41:52;;;;;;;12.80;5.47;;;;;;;28.46;40.15;97149.19;4962792;28;20018;-58
2021/07/20 10:44:40;;;;;;;13.63;5.55;;;;;;;28.81;39.60;97151.06;4965643;28;20034;-58
2021/07/20 10:47:06;;;;;;;10.98;5.45;;;;;;;28.86;39.27;97153.94;4967768;28;20037;-59
2021/07/20 10:49:38;;;;;;;14.48;6.05;;;;;;;28.45;40.82;97147.50;4956398;28;20045;-58
2021/07/20 10:52:42;;;;;;;13.88;5.93;;;;;;;28.51;40.29;97152.03;4957633;28;20491;-58
2021/07/20 10:55:09;;;;;;;13.02;6.00;;;;;;;28.40;40.86;97144.63;4954605;28;20090;-58
2021/07/20 10:57:43;;;;;;;13.60;6.38;;;;;;;28.45;40.19;97146.63;4975305;28;20022;-58
2021/07/20 11:00:10;;;;;;;19.38;6.30;;;;;;;28.78;39.58;97150.69;4974393;28;20463;-58
2021/07/20 11:02:53;;;;;;;14.23;6.13;;;;;;;28.77;39.48;97147.09;4975610;28;20019;-59
2021/07/20 11:05:19;;;;;;;9.88;5.70;;;;;;;28.58;39.91;97148.31;4973749;28;20368;-58
2021/07/20 11:07:48;;;;;;;13.80;5.57;;;;;;;28.84;39.83;97156.09;4970521;28;20031;-59
2021/07/20 11:10:22;;;;;;;18.75;6.32;;;;;;;29.08;39.37;97146.84;4975483;28;20023;-57
2021/07/20 11:12:52;;;;;;;13.57;6.03;;;;;;;29.32;39.05;97150.41;4990432;28;20078;-57
2021/07/20 11:15:21;;;;;;;16.83;6.07;;;;;;;29.19;38.59;97151.50;4974687;28;20034;-58
2021/07/20 11:17:48;;;;;;;13.30;5.78;;;;;;;29.12;39.44;97143.34;4972061;28;20042;-58
2021/07/20 11:20:17;;;;;;;15.63;6.10;;;;;;;29.12;39.08;97140.56;4973051;28;20038;-57
2021/07/20 11:22:42;;;;;;;15.88;6.30;;;;;;;29.17;38.67;97140.69;4972071;28;20450;-58
2021/07/20 11:25:09;;;;;;;17.65;6.38;;;;;;;29.26;37.96;97143.06;4974014;28;20503;-58
2021/07/20 11:27:39;;;;;;;15.93;6.05;;;;;;;29.22;37.57;97143.56;4975475;28;20053;-57
2021/07/20 11:30:10;;;;;;;15.88;6.20;;;;;;;29.34;38.86;97137.97;4975228;28;20470;-57
2021/07/20 11:32:36;;;;;;;12.45;6.05;;;;;;;29.36;38.69;97137.72;4973049;28;20100;-57
2021/07/20 11:35:06;;;;;;;11.88;6.15;;;;;;;29.36;38.52;97137.72;4957628;28;20023;-58
2021/07/20 11:37:36;;;;;;;16.13;5.88;;;;;;;29.50;38.00;97127.16;4972474;28;20080;-58
2021/07/20 11:40:07;;;;;;;13.75;5.60;;;;;;;29.32;37.64;97136.56;4975121;28;20022;-57
2021/07/20 11:42:45;;;;;;;14.63;5.90;;;;;;;29.64;38.28;97127.69;4970855;28;20029;-57
2021/07/20 11:45:13;;;;;;;13.18;5.95;;;;;;;29.38;38.65;97117.00;4972293;28;20046;-58
2021/07/20 11:47:44;;;;;;;14.95;6.15;;;;;;;29.40;38.17;97119.53;4975044;28;20039;-57
2021/07/20 11:50:15;;;;;;;11.52;5.85;;;;;;;29.60;36.68;97119.03;4973951;28;20090;-57
2021/07/20 11:52:50;;;;;;;14.95;5.85;;;;;;;29.64;36.80;97106.34;4976412;28;20391;-58
2021/07/20 11:55:25;;;;;;;14.70;6.65;;;;;;;29.82;36.88;97121.03;4976017;28;20211;-58
2021/07/20 11:58:24;;;;;;;14.35;6.10;;;;;;;29.84;36.91;97111.38;4976239;28;20333;-58